createdAt,value
2023-04-18T00:00:21.663Z,8.6688
2023-04-18T00:01:29.781Z,8.7083
2023-04-18T00:02:38.003Z,8.7121
2023-04-18T00:03:46.080Z,8.7585
2023-04-18T00:04:54.032Z,8.7694
2023-04-18T00:06:01.845Z,8.8466
2023-04-18T00:07:10.076Z,8.7570
2023-04-18T00:08:17.968Z,8.8430
2023-04-18T00:09:26.378Z,8.9605
2023-04-18T00:10:34.230Z,9.0530
2023-04-18T00:11:42.148Z,9.1045
2023-04-18T00:12:50.402Z,9.2510
2023-04-18T00:13:58.460Z,9.2460
2023-04-18T00:15:06.463Z,9.2411
2023-04-18T00:16:14.593Z,9.3883
2023-04-18T00:17:22.696Z,9.4671
2023-04-18T00:18:30.704Z,9.4800
2023-04-18T00:19:38.780Z,9.5039
2023-04-18T00:20:46.782Z,9.3933
2023-04-18T00:21:54.847Z,9.4787
2023-04-18T00:23:02.767Z,9.4703
2023-04-18T00:24:11.052Z,9.5518
2023-04-18T00:25:18.907Z,9.6639
2023-04-18T00:26:27.231Z,9.5464
2023-04-18T00:27:35.159Z,9.4598
2023-04-18T00:28:43.415Z,9.6302
2023-04-18T00:29:51.305Z,9.6448
2023-04-18T00:30:59.357Z,9.6874
2023-04-18T00:32:07.433Z,9.6292
2023-04-18T00:33:15.482Z,9.4797
2023-04-18T00:34:23.625Z,9.5701
2023-04-18T00:35:31.547Z,9.6902
2023-04-18T00:36:39.687Z,9.7433
2023-04-18T00:37:47.739Z,9.4709
2023-04-18T00:38:55.982Z,9.4379
2023-04-18T00:40:03.730Z,9.5052
2023-04-18T00:41:11.910Z,9.6323
2023-04-18T00:42:19.887Z,9.6757
2023-04-18T00:43:28.321Z,9.7414
2023-04-18T00:44:36.155Z,9.7620
2023-04-18T00:45:44.201Z,9.7580
2023-04-18T00:46:52.263Z,9.7164
2023-04-18T00:48:00.391Z,9.7305
2023-04-18T00:49:08.355Z,9.6811
2023-04-18T00:50:16.449Z,9.7009
2023-04-18T00:51:24.566Z,9.7618
2023-04-18T00:52:32.535Z,9.7946
2023-04-18T00:53:40.663Z,9.7379
2023-04-18T00:54:48.702Z,9.7532
2023-04-18T00:55:56.850Z,9.8163
2023-04-18T00:57:04.687Z,9.8053
2023-04-18T00:58:12.871Z,9.8718
2023-04-18T00:59:21.009Z,9.9153
2023-04-18T01:00:29.058Z,9.9868
2023-04-18T01:01:37.141Z,9.8995
2023-04-18T01:02:45.313Z,9.9352
2023-04-18T01:03:53.353Z,9.9153
2023-04-18T01:05:01.496Z,9.7433
2023-04-18T01:06:09.329Z,9.7637
2023-04-18T01:07:17.518Z,9.7913
2023-04-18T01:08:25.362Z,9.8352
2023-04-18T01:09:33.564Z,9.7265
2023-04-18T01:10:41.761Z,9.6592
2023-04-18T01:11:49.683Z,9.7547
2023-04-18T01:12:57.903Z,9.6109
2023-04-18T01:14:05.804Z,9.5411
2023-04-18T01:15:14.186Z,9.5892
2023-04-18T01:16:21.888Z,9.7030
2023-04-18T01:17:30.186Z,9.7231
2023-04-18T01:18:38.095Z,9.6334
2023-04-18T01:19:46.114Z,9.4776
2023-04-18T01:20:54.211Z,9.6193
2023-04-18T01:22:02.366Z,9.6447
2023-04-18T01:23:10.184Z,9.6824
2023-04-18T01:24:18.379Z,9.7660
2023-04-18T01:25:26.538Z,9.8016
2023-04-18T01:26:34.509Z,9.7322
2023-04-18T01:27:42.654Z,9.7625
2023-04-18T01:28:50.602Z,9.8894
2023-04-18T01:29:58.712Z,9.7932
2023-04-18T01:31:06.788Z,9.7911
2023-04-18T01:32:14.997Z,9.7791
2023-04-18T01:33:23.033Z,9.7196
2023-04-18T01:34:30.838Z,9.7868
2023-04-18T01:35:39.024Z,9.7747
2023-04-18T01:36:47.087Z,9.8949
2023-04-18T01:37:55.190Z,9.9138
2023-04-18T01:39:03.254Z,9.9262
2023-04-18T01:40:11.152Z,9.9121
2023-04-18T01:41:19.439Z,9.8981
2023-04-18T01:42:27.410Z,9.8842
2023-04-18T01:43:35.446Z,9.8110
2023-04-18T01:44:43.588Z,9.7002
2023-04-18T01:45:51.442Z,9.7541
2023-04-18T01:46:59.682Z,9.8369
2023-04-18T01:48:07.755Z,9.7181
2023-04-18T01:49:15.791Z,9.7353
2023-04-18T01:50:23.867Z,9.7595
2023-04-18T01:51:32.047Z,9.7009
2023-04-18T01:52:39.974Z,9.7002
2023-04-18T01:53:47.933Z,9.6031
2023-04-18T01:54:56.238Z,9.4686
2023-04-18T01:56:04.189Z,9.4923
2023-04-18T01:57:12.124Z,9.4158
2023-04-18T01:58:20.311Z,9.5970
2023-04-18T01:59:28.253Z,9.6147
2023-04-18T02:00:36.482Z,9.5668
2023-04-18T02:01:44.682Z,9.5922
2023-04-18T02:02:52.569Z,9.7536
2023-04-18T02:04:00.755Z,9.7395
2023-04-18T02:05:08.576Z,9.7673
2023-04-18T02:06:16.771Z,9.7511
2023-04-18T02:07:24.868Z,9.8024
2023-04-18T02:08:32.895Z,9.7137
2023-04-18T02:09:40.979Z,9.6582
2023-04-18T02:10:48.911Z,9.7457
2023-04-18T02:11:57.147Z,9.5634
2023-04-18T02:13:05.288Z,9.5975
2023-04-18T02:14:13.403Z,9.7061
2023-04-18T02:15:21.368Z,9.5258
2023-04-18T02:16:29.394Z,9.4938
2023-04-18T02:17:37.518Z,9.5405
2023-04-18T02:18:45.501Z,9.7059
2023-04-18T02:19:53.593Z,9.7213
2023-04-18T02:21:01.634Z,9.7160
2023-04-18T02:22:09.688Z,9.6935
2023-04-18T02:23:17.843Z,9.6567
2023-04-18T02:24:25.825Z,9.7183
2023-04-18T02:25:33.901Z,9.7139
2023-04-18T02:26:42.001Z,9.7114
2023-04-18T02:27:50.051Z,9.6281
2023-04-18T02:28:58.266Z,9.5647
2023-04-18T02:30:06.302Z,9.6387
2023-04-18T02:31:14.119Z,9.7316
2023-04-18T02:32:22.346Z,9.6599
2023-04-18T02:33:30.406Z,9.6033
2023-04-18T02:34:38.528Z,9.7026
2023-04-18T02:35:46.500Z,9.7456
2023-04-18T02:36:54.439Z,9.7778
2023-04-18T02:38:02.777Z,9.7280
2023-04-18T02:39:10.876Z,9.6510
2023-04-18T02:40:18.660Z,9.7299
2023-04-18T02:41:26.836Z,9.7097
2023-04-18T02:42:34.925Z,9.6454
2023-04-18T02:43:42.963Z,9.6431
2023-04-18T02:44:51.019Z,9.6920
2023-04-18T02:45:59.161Z,9.6910
2023-04-18T02:47:07.218Z,9.7360
2023-04-18T02:48:15.261Z,9.8066
2023-04-18T02:49:23.389Z,9.7084
2023-04-18T02:50:31.296Z,9.7082
2023-04-18T02:51:39.413Z,9.7765
2023-04-18T02:52:47.436Z,9.6874
2023-04-18T02:53:55.388Z,9.7320
2023-04-18T02:55:03.578Z,9.7122
2023-04-18T02:56:11.827Z,9.6090
2023-04-18T02:57:19.599Z,9.6767
2023-04-18T02:58:27.782Z,9.5474
2023-04-18T02:59:35.952Z,9.4711
2023-04-18T03:00:43.949Z,9.5586
2023-04-18T03:01:51.943Z,9.6153
2023-04-18T03:03:00.216Z,9.4961
2023-04-18T03:04:08.054Z,9.5222
2023-04-18T03:05:16.128Z,9.6864
2023-04-18T03:06:24.207Z,9.6231
2023-04-18T03:07:32.237Z,9.6277
2023-04-18T03:08:40.228Z,9.6790
2023-04-18T03:09:48.396Z,9.7221
2023-04-18T03:10:56.514Z,9.7042
2023-04-18T03:12:04.582Z,9.6723
2023-04-18T03:13:12.597Z,9.6414
2023-04-18T03:14:20.702Z,9.7145
2023-04-18T03:15:28.676Z,9.7143
2023-04-18T03:16:36.755Z,9.7732
2023-04-18T03:17:44.707Z,9.6006
2023-04-18T03:18:53.015Z,9.5743
2023-04-18T03:20:00.862Z,9.6759
2023-04-18T03:21:09.027Z,9.7051
2023-04-18T03:22:17.059Z,9.6931
2023-04-18T03:23:25.092Z,9.6786
2023-04-18T03:24:33.174Z,9.6660
2023-04-18T03:25:41.291Z,9.5459
2023-04-18T03:26:49.334Z,9.6527
2023-04-18T03:27:57.405Z,9.7061
2023-04-18T03:29:05.306Z,9.6469
2023-04-18T03:30:13.534Z,9.6248
2023-04-18T03:31:21.625Z,9.6012
2023-04-18T03:32:29.664Z,9.6395
2023-04-18T03:33:37.684Z,9.6113
2023-04-18T03:34:45.856Z,9.6561
2023-04-18T03:35:53.828Z,9.6946
2023-04-18T03:37:01.844Z,9.7158
2023-04-18T03:38:09.974Z,9.7951
2023-04-18T03:39:18.013Z,9.7953
2023-04-18T03:40:26.104Z,9.7910
2023-04-18T03:41:34.137Z,9.7421
2023-04-18T03:42:42.259Z,9.6607
2023-04-18T03:43:50.227Z,9.7255
2023-04-18T03:44:58.388Z,9.7532
2023-04-18T03:46:06.563Z,9.6859
2023-04-18T03:47:14.459Z,9.6246
2023-04-18T03:48:22.427Z,9.6887
2023-04-18T03:49:30.647Z,9.5954
2023-04-18T03:50:38.672Z,9.5556
2023-04-18T03:51:46.692Z,9.6286
2023-04-18T03:52:54.797Z,9.8249
2023-04-18T03:54:02.740Z,9.8127
2023-04-18T03:55:11.156Z,9.7831
2023-04-18T03:56:18.936Z,9.7887
2023-04-18T03:57:27.234Z,9.7534
2023-04-18T03:58:35.113Z,9.7314
2023-04-18T03:59:43.212Z,9.7951
2023-04-18T04:00:51.280Z,9.7778
2023-04-18T04:01:59.353Z,9.7103
2023-04-18T04:03:07.527Z,9.7030
2023-04-18T04:04:15.777Z,9.6855
2023-04-18T04:05:23.546Z,9.7427
2023-04-18T04:06:31.499Z,9.7814
2023-04-18T04:07:39.531Z,9.7873
2023-04-18T04:08:47.608Z,9.7343
2023-04-18T04:09:55.680Z,9.7354
2023-04-18T04:11:03.829Z,9.7694
2023-04-18T04:12:11.872Z,9.7816
2023-04-18T04:13:20.009Z,9.7435
2023-04-18T04:14:27.859Z,9.7070
2023-04-18T04:15:36.029Z,9.6807
2023-04-18T04:16:44.148Z,9.6822
2023-04-18T04:17:52.182Z,9.7133
2023-04-18T04:19:00.190Z,9.6738
2023-04-18T04:20:08.230Z,9.6586
2023-04-18T04:21:16.300Z,9.5760
2023-04-18T04:22:24.435Z,9.4619
2023-04-18T04:23:32.429Z,9.5632
2023-04-18T04:24:40.614Z,9.4968
2023-04-18T04:25:48.537Z,9.4306
2023-04-18T04:26:56.653Z,9.4028
2023-04-18T04:28:04.750Z,9.5016
2023-04-18T04:29:12.752Z,9.5874
2023-04-18T04:30:20.803Z,9.5014
2023-04-18T04:31:28.883Z,9.3290
2023-04-18T04:32:37.021Z,9.4738
2023-04-18T04:33:45.046Z,9.6531
2023-04-18T04:34:53.042Z,9.7263
2023-04-18T04:36:01.256Z,9.7061
2023-04-18T04:37:09.188Z,9.6998
2023-04-18T04:38:17.291Z,9.7543
2023-04-18T04:39:25.396Z,9.7517
2023-04-18T04:40:33.380Z,9.5922
2023-04-18T04:41:41.494Z,9.6180
2023-04-18T04:42:49.494Z,9.6233
2023-04-18T04:43:57.527Z,9.6056
2023-04-18T04:45:05.779Z,9.7047
2023-04-18T04:46:13.718Z,9.7528
2023-04-18T04:47:21.746Z,9.7427
2023-04-18T04:48:29.800Z,9.7469
2023-04-18T04:49:37.938Z,9.7515
2023-04-18T04:50:46.035Z,9.7984
2023-04-18T04:51:53.924Z,9.7753
2023-04-18T04:53:02.104Z,9.7076
2023-04-18T04:54:10.223Z,9.5960
2023-04-18T04:55:18.174Z,9.6534
2023-04-18T04:56:26.273Z,9.6044
2023-04-18T04:57:34.336Z,9.5592
2023-04-18T04:58:42.391Z,9.5769
2023-04-18T04:59:50.438Z,9.6271
2023-04-18T05:00:58.462Z,9.6487
2023-04-18T05:02:06.669Z,9.6401
2023-04-18T05:03:14.933Z,9.6599
2023-04-18T05:04:22.843Z,9.6645
2023-04-18T05:05:30.744Z,9.6969
2023-04-18T05:06:40.306Z,9.6756
2023-04-18T05:07:46.946Z,9.7019
2023-04-18T05:08:55.029Z,9.6935
2023-04-18T05:10:03.135Z,9.6601
2023-04-18T05:11:11.139Z,9.6395
2023-04-18T05:12:19.205Z,9.7068
2023-04-18T05:13:27.419Z,9.6988
2023-04-18T05:14:35.285Z,9.7309
2023-04-18T05:15:43.387Z,9.7883
2023-04-18T05:16:51.479Z,9.8339
2023-04-18T05:17:59.533Z,9.7660
2023-04-18T05:19:07.615Z,9.7848
2023-04-18T05:20:15.576Z,9.7955
2023-04-18T05:21:23.682Z,9.7892
2023-04-18T05:22:31.748Z,9.7795
2023-04-18T05:23:39.846Z,9.7744
2023-04-18T05:24:48.054Z,9.7820
2023-04-18T05:25:56.176Z,9.8459
2023-04-18T05:27:04.021Z,9.9033
2023-04-18T05:28:12.069Z,9.9474
2023-04-18T05:29:20.123Z,9.9195
2023-04-18T05:30:28.208Z,9.8608
2023-04-18T05:31:36.313Z,9.8928
2023-04-18T05:32:44.366Z,9.9168
2023-04-18T05:33:52.483Z,9.9403
2023-04-18T05:35:00.492Z,9.9596
2023-04-18T05:36:08.535Z,9.8770
2023-04-18T05:37:16.566Z,9.8724
2023-04-18T05:38:24.629Z,9.9062
2023-04-18T05:39:32.702Z,9.9006
2023-04-18T05:40:40.762Z,9.9163
2023-04-18T05:41:48.849Z,9.8476
2023-04-18T05:42:56.892Z,9.7797
2023-04-18T05:44:05.929Z,9.6994
2023-04-18T05:45:13.013Z,9.7244
2023-04-18T05:46:21.077Z,9.8123
2023-04-18T05:47:29.228Z,9.8590
2023-04-18T05:48:37.226Z,9.8400
2023-04-18T05:49:45.229Z,9.9197
2023-04-18T05:50:53.332Z,9.9969
2023-04-18T05:52:01.384Z,10.0500
2023-04-18T05:53:09.532Z,9.9897
2023-04-18T05:54:17.606Z,9.7801
2023-04-18T05:55:25.546Z,9.8304
2023-04-18T05:56:33.679Z,9.9319
2023-04-18T05:57:41.776Z,9.9292
2023-04-18T05:58:49.820Z,9.9289
2023-04-18T05:59:57.868Z,9.9832
2023-04-18T06:01:05.848Z,9.9252
2023-04-18T06:02:14.039Z,9.8905
2023-04-18T06:03:22.280Z,9.8640
2023-04-18T06:04:30.412Z,9.9680
2023-04-18T06:05:38.356Z,10.0092
2023-04-18T06:06:46.248Z,10.0145
2023-04-18T06:07:54.305Z,9.9556
2023-04-18T06:09:02.444Z,9.8764
2023-04-18T06:10:10.459Z,9.8743
2023-04-18T06:11:18.424Z,9.9302
2023-04-18T06:12:26.485Z,9.8526
2023-04-18T06:13:34.631Z,9.7623
2023-04-18T06:14:42.729Z,9.8869
2023-04-18T06:15:50.726Z,10.0433
2023-04-18T06:16:58.825Z,10.0425
2023-04-18T06:18:06.875Z,10.0832
2023-04-18T06:19:14.969Z,10.1177
2023-04-18T06:20:23.114Z,10.1982
2023-04-18T06:21:31.076Z,10.1905
2023-04-18T06:22:39.154Z,10.1947
2023-04-18T06:23:47.335Z,10.1696
2023-04-18T06:24:55.280Z,10.1888
2023-04-18T06:26:03.381Z,10.2262
2023-04-18T06:27:20.731Z,10.2914
2023-04-18T06:28:24.358Z,10.3595
2023-04-18T06:29:32.346Z,10.2501
2023-04-18T06:30:40.469Z,10.3059
2023-04-18T06:31:48.648Z,10.3532
2023-04-18T06:32:56.584Z,10.3757
2023-04-18T06:34:04.671Z,10.2081
2023-04-18T06:35:12.840Z,10.2472
2023-04-18T06:36:20.810Z,10.2750
2023-04-18T06:37:28.817Z,10.4383
2023-04-18T06:38:36.895Z,10.5583
2023-04-18T06:39:45.216Z,10.5196
2023-04-18T06:40:53.053Z,10.3857
2023-04-18T06:42:01.142Z,10.3584
2023-04-18T06:43:09.232Z,10.4801
2023-04-18T06:44:17.307Z,10.5512
2023-04-18T06:45:25.403Z,10.5509
2023-04-18T06:46:33.391Z,10.5413
2023-04-18T06:47:41.414Z,10.5131
2023-04-18T06:48:51.047Z,10.5699
2023-04-18T06:49:57.571Z,10.5711
2023-04-18T06:51:05.695Z,10.5638
2023-04-18T06:52:13.734Z,10.4072
2023-04-18T06:53:21.671Z,10.4267
2023-04-18T06:54:29.844Z,10.4892
2023-04-18T06:55:37.997Z,10.5135
2023-04-18T06:56:45.976Z,10.4696
2023-04-18T06:57:54.025Z,10.5455
2023-04-18T06:59:02.140Z,10.5489
2023-04-18T07:00:10.098Z,10.5213
2023-04-18T07:01:18.373Z,10.4602
2023-04-18T07:02:26.356Z,10.5648
2023-04-18T07:03:34.391Z,10.6113
2023-04-18T07:04:42.366Z,10.5901
2023-04-18T07:05:50.502Z,10.6012
2023-04-18T07:06:58.561Z,10.6500
2023-04-18T07:08:06.570Z,10.6027
2023-04-18T07:09:14.630Z,10.5798
2023-04-18T07:10:22.592Z,10.5678
2023-04-18T07:11:30.790Z,10.6220
2023-04-18T07:12:38.734Z,10.6672
2023-04-18T07:13:46.785Z,10.6313
2023-04-18T07:14:54.907Z,10.6865
2023-04-18T07:16:02.953Z,10.8194
2023-04-18T07:17:11.204Z,10.8782
2023-04-18T07:18:30.262Z,10.9529
2023-04-18T07:19:32.054Z,10.8658
2023-04-18T07:20:40.068Z,10.9451
2023-04-18T07:21:48.204Z,11.1057
2023-04-18T07:22:56.246Z,11.2077
2023-04-18T07:24:04.264Z,11.2564
2023-04-18T07:25:12.222Z,11.2776
2023-04-18T07:26:20.379Z,11.2316
2023-04-18T07:27:28.463Z,11.2640
2023-04-18T07:28:36.532Z,10.8442
2023-04-18T07:29:44.570Z,10.8913
2023-04-18T07:30:52.583Z,10.9895
2023-04-18T07:32:00.687Z,10.9363
2023-04-18T07:33:08.814Z,10.9581
2023-04-18T07:34:16.836Z,11.1774
2023-04-18T07:35:24.856Z,11.2707
2023-04-18T07:36:32.860Z,11.3218
2023-04-18T07:37:41.115Z,11.3026
2023-04-18T07:38:49.065Z,11.2896
2023-04-18T07:39:57.143Z,11.2238
2023-04-18T07:41:05.180Z,11.2537
2023-04-18T07:42:13.190Z,11.3251
2023-04-18T07:43:21.312Z,11.3104
2023-04-18T07:44:29.382Z,11.3960
2023-04-18T07:45:37.494Z,11.3783
2023-04-18T07:46:45.604Z,11.4097
2023-04-18T07:47:53.557Z,11.4036
2023-04-18T07:49:01.646Z,11.5129
2023-04-18T07:50:09.704Z,11.5414
2023-04-18T07:51:17.730Z,11.5192
2023-04-18T07:52:25.840Z,11.6444
2023-04-18T07:53:33.820Z,11.3876
2023-04-18T07:54:41.923Z,11.6054
2023-04-18T07:55:50.330Z,11.6150
2023-04-18T07:56:58.169Z,11.7151
2023-04-18T07:58:06.148Z,11.6863
2023-04-18T07:59:14.325Z,11.8441
2023-04-18T08:00:22.183Z,11.7775
2023-04-18T08:01:30.313Z,11.6402
2023-04-18T08:02:38.572Z,11.7823
2023-04-18T08:03:46.577Z,12.0525
2023-04-18T08:04:54.980Z,12.1403
2023-04-18T08:06:02.585Z,11.9734
2023-04-18T08:07:10.676Z,11.9249
2023-04-18T08:08:18.853Z,12.0706
2023-04-18T08:09:26.729Z,12.0764
2023-04-18T08:10:34.720Z,12.3333
2023-04-18T08:11:42.867Z,12.5551
2023-04-18T08:12:50.942Z,12.6156
2023-04-18T08:13:59.036Z,12.5666
2023-04-18T08:15:07.076Z,12.7646
2023-04-18T08:16:17.359Z,12.8185
2023-04-18T08:17:23.207Z,12.7569
2023-04-18T08:18:31.248Z,12.8223
2023-04-18T08:19:39.205Z,12.8128
2023-04-18T08:20:47.517Z,12.7634
2023-04-18T08:21:55.442Z,12.8546
2023-04-18T08:23:08.642Z,12.8006
2023-04-18T08:24:16.376Z,12.6533
2023-04-18T08:25:24.515Z,12.5935
2023-04-18T08:26:32.554Z,12.5797
2023-04-18T08:27:40.678Z,12.5568
2023-04-18T08:28:48.554Z,12.6617
2023-04-18T08:29:56.810Z,12.7161
2023-04-18T08:31:04.743Z,12.7064
2023-04-18T08:32:12.901Z,12.6301
2023-04-18T08:33:20.901Z,12.5156
2023-04-18T08:34:28.935Z,12.1931
2023-04-18T08:35:36.957Z,11.8050
2023-04-18T08:36:45.046Z,11.9051
2023-04-18T08:37:53.019Z,11.9362
2023-04-18T08:39:01.203Z,12.0825
2023-04-18T08:40:09.163Z,12.0985
2023-04-18T08:41:17.415Z,12.1849
2023-04-18T08:42:25.396Z,12.1473
2023-04-18T08:43:33.326Z,12.0584
2023-04-18T08:44:41.475Z,12.3035
2023-04-18T08:45:49.434Z,12.3056
2023-04-18T08:46:57.640Z,12.2423
2023-04-18T08:48:05.586Z,12.2061
2023-04-18T08:49:13.798Z,12.4981
2023-04-18T08:50:21.823Z,12.7140
2023-04-18T08:51:29.770Z,12.7895
2023-04-18T08:52:38.020Z,12.7327
2023-04-18T08:53:46.030Z,12.5586
2023-04-18T08:54:53.969Z,12.8542
2023-04-18T08:56:02.022Z,13.1329
2023-04-18T08:57:10.029Z,13.1729
2023-04-18T08:58:18.087Z,13.0354
2023-04-18T08:59:26.185Z,13.0726
2023-04-18T09:00:34.160Z,12.9177
2023-04-18T09:01:42.313Z,12.9099
2023-04-18T09:02:50.437Z,12.9271
2023-04-18T09:03:58.504Z,12.9379
2023-04-18T09:05:06.466Z,12.8956
2023-04-18T09:06:14.442Z,12.7478
2023-04-18T09:07:22.613Z,12.6890
2023-04-18T09:08:30.747Z,12.7871
2023-04-18T09:09:38.690Z,12.8426
2023-04-18T09:10:46.913Z,12.6803
2023-04-18T09:11:54.716Z,12.7918
2023-04-18T09:13:02.890Z,12.9072
2023-04-18T09:14:11.240Z,13.0449
2023-04-18T09:15:19.003Z,13.2221
2023-04-18T09:16:27.125Z,13.2475
2023-04-18T09:17:35.118Z,13.2488
2023-04-18T09:18:43.228Z,13.1994
2023-04-18T09:19:51.348Z,13.3465
2023-04-18T09:20:59.440Z,13.4525
2023-04-18T09:22:07.397Z,13.4995
2023-04-18T09:23:15.399Z,13.3631
2023-04-18T09:24:23.688Z,13.0732
2023-04-18T09:25:31.717Z,13.0926
2023-04-18T09:26:39.623Z,13.2856
2023-04-18T09:27:47.718Z,13.5403
2023-04-18T09:28:55.674Z,13.7327
2023-04-18T09:30:03.876Z,13.7638
2023-04-18T09:31:12.188Z,13.7440
2023-04-18T09:32:19.992Z,13.6988
2023-04-18T09:33:28.117Z,13.7810
2023-04-18T09:34:35.965Z,13.9109
2023-04-18T09:35:44.177Z,13.9492
2023-04-18T09:36:52.292Z,13.8359
2023-04-18T09:38:00.349Z,13.7148
2023-04-18T09:39:08.297Z,13.7503
2023-04-18T09:40:16.264Z,13.6278
2023-04-18T09:41:24.403Z,13.5258
2023-04-18T09:42:32.486Z,13.3963
2023-04-18T09:43:40.404Z,13.5042
2023-04-18T09:44:48.486Z,13.7406
2023-04-18T09:45:56.617Z,13.9591
2023-04-18T09:47:04.715Z,14.0646
2023-04-18T09:48:12.781Z,14.0599
2023-04-18T09:49:20.713Z,14.0606
2023-04-18T09:50:28.838Z,13.9513
2023-04-18T09:51:36.949Z,13.8191
2023-04-18T09:52:45.301Z,13.6835
2023-04-18T09:53:53.037Z,13.6849
2023-04-18T09:55:01.210Z,13.7007
2023-04-18T09:56:09.197Z,13.7688
2023-04-18T09:57:17.186Z,13.7346
2023-04-18T09:58:25.205Z,13.8529
2023-04-18T09:59:33.191Z,13.9607
2023-04-18T10:00:41.376Z,14.0335
2023-04-18T10:01:49.482Z,13.8272
2023-04-18T10:02:57.502Z,14.1144
2023-04-18T10:04:05.552Z,14.2306
2023-04-18T10:05:13.803Z,14.4026
2023-04-18T10:06:21.559Z,14.4650
2023-04-18T10:07:29.702Z,14.4364
2023-04-18T10:08:37.762Z,14.5329
2023-04-18T10:09:45.781Z,14.6401
2023-04-18T10:10:53.917Z,14.7143
2023-04-18T10:12:02.073Z,14.6294
2023-04-18T10:13:09.995Z,14.5848
2023-04-18T10:14:18.259Z,14.8159
2023-04-18T10:15:26.047Z,15.1486
2023-04-18T10:16:35.654Z,15.3363
2023-04-18T10:17:52.551Z,15.5154
2023-04-18T10:18:55.157Z,15.1814
2023-04-18T10:20:03.180Z,14.8581
2023-04-18T10:21:11.186Z,15.1869
2023-04-18T10:22:19.348Z,15.2218
2023-04-18T10:23:28.174Z,15.2764
2023-04-18T10:24:35.344Z,15.3307
2023-04-18T10:25:43.475Z,15.0500
2023-04-18T10:26:51.447Z,15.7237
2023-04-18T10:27:59.622Z,16.5141
2023-04-18T10:29:07.644Z,16.6959
2023-04-18T10:30:15.632Z,17.1950
2023-04-18T10:31:23.864Z,17.6995
2023-04-18T10:32:31.801Z,18.0800
2023-04-18T10:33:42.442Z,17.8912
2023-04-18T10:34:52.807Z,18.2291
2023-04-18T10:36:01.037Z,17.4533
2023-04-18T10:37:08.938Z,17.1824
2023-04-18T10:38:17.006Z,16.8103
2023-04-18T10:39:25.059Z,16.6468
2023-04-18T10:40:33.078Z,16.8221
2023-04-18T10:41:41.304Z,17.2250
2023-04-18T10:42:49.217Z,16.8526
2023-04-18T10:43:57.239Z,16.5890
2023-04-18T10:45:05.605Z,16.4994
2023-04-18T10:46:24.270Z,16.2886
2023-04-18T10:47:26.331Z,17.0079
2023-04-18T10:48:38.459Z,17.9704
2023-04-18T10:49:47.384Z,18.0057
2023-04-18T10:50:55.240Z,18.1533
2023-04-18T10:52:03.362Z,18.7745
2023-04-18T10:53:11.407Z,18.8308
2023-04-18T10:54:19.545Z,19.0370
2023-04-18T10:55:27.592Z,19.3071
2023-04-18T10:56:35.578Z,19.7614
2023-04-18T10:57:43.696Z,18.9838
2023-04-18T10:58:51.741Z,17.9673
2023-04-18T10:59:59.693Z,17.7873
2023-04-18T11:01:07.963Z,18.0766
2023-04-18T11:02:15.786Z,18.7707
2023-04-18T11:03:23.986Z,18.9414
2023-04-18T11:04:32.011Z,19.6685
2023-04-18T11:05:40.063Z,19.4432
2023-04-18T11:06:48.130Z,18.8283
2023-04-18T11:07:56.090Z,18.0446
2023-04-18T11:09:04.350Z,17.6089
2023-04-18T11:10:12.335Z,17.0848
2023-04-18T11:11:20.368Z,16.9987
2023-04-18T11:12:28.477Z,17.0497
2023-04-18T11:13:36.341Z,16.8820
2023-04-18T11:14:44.497Z,16.6363
2023-04-18T11:15:52.645Z,16.4870
2023-04-18T11:17:00.575Z,16.3752
2023-04-18T11:18:08.718Z,16.0061
2023-04-18T11:19:16.920Z,15.8577
2023-04-18T11:20:24.772Z,16.2278
2023-04-18T11:21:32.883Z,16.7634
2023-04-18T11:22:40.828Z,17.0436
2023-04-18T11:23:49.011Z,17.2211
2023-04-18T11:24:57.044Z,16.9530
2023-04-18T11:26:05.064Z,16.0582
2023-04-18T11:27:13.091Z,16.2985
2023-04-18T11:28:21.207Z,16.0805
2023-04-18T11:29:29.234Z,16.0451
2023-04-18T11:30:37.213Z,15.9270
2023-04-18T11:31:45.535Z,16.0687
2023-04-18T11:32:53.396Z,16.0664
2023-04-18T11:34:01.352Z,15.8749
2023-04-18T11:35:09.544Z,15.8223
2023-04-18T11:36:17.570Z,15.8087
2023-04-18T11:37:25.626Z,15.7042
2023-04-18T11:38:33.636Z,15.7309
2023-04-18T11:39:41.682Z,16.0760
2023-04-18T11:40:49.920Z,16.1355
2023-04-18T11:41:57.737Z,16.3107
2023-04-18T11:43:05.857Z,16.4471
2023-04-18T11:44:13.954Z,15.8837
2023-04-18T11:45:22.076Z,16.7166
2023-04-18T11:46:30.184Z,17.0470
2023-04-18T11:47:38.199Z,17.1359
2023-04-18T11:48:46.070Z,17.5093
2023-04-18T11:49:56.500Z,17.8454
2023-04-18T11:51:07.365Z,18.8572
2023-04-18T11:52:15.207Z,19.1238
2023-04-18T11:53:23.154Z,19.2443
2023-04-18T11:54:31.266Z,18.7049
2023-04-18T11:55:39.342Z,19.5960
2023-04-18T11:56:47.372Z,19.6153
2023-04-18T11:57:55.543Z,20.3479
2023-04-18T11:59:03.630Z,20.5055
2023-04-18T12:00:11.519Z,20.4681
2023-04-18T12:01:19.720Z,20.1238
2023-04-18T12:02:27.857Z,19.7118
2023-04-18T12:03:35.950Z,18.9321
2023-04-18T12:04:44.088Z,18.3463
2023-04-18T12:05:51.993Z,18.0188
2023-04-18T12:06:59.930Z,18.1008
2023-04-18T12:08:08.164Z,18.0776
2023-04-18T12:09:15.970Z,18.3762
2023-04-18T12:10:24.074Z,18.3505
2023-04-18T12:11:32.182Z,18.4060
2023-04-18T12:12:40.202Z,18.8006
2023-04-18T12:13:48.277Z,18.4258
2023-04-18T12:14:56.329Z,18.2107
2023-04-18T12:16:04.389Z,18.4855
2023-04-18T12:17:12.511Z,18.6666
2023-04-18T12:18:20.483Z,18.1146
2023-04-18T12:19:28.613Z,18.0867
2023-04-18T12:20:36.601Z,18.1889
2023-04-18T12:21:44.631Z,18.1651
2023-04-18T12:22:52.651Z,17.8912
2023-04-18T12:24:00.758Z,17.9826
2023-04-18T12:25:08.883Z,18.1502
2023-04-18T12:26:16.835Z,18.2696
2023-04-18T12:27:24.953Z,18.1735
2023-04-18T12:28:33.031Z,18.6301
2023-04-18T12:29:41.018Z,20.1537
2023-04-18T12:30:49.137Z,21.1660
2023-04-18T12:31:57.187Z,21.2449
2023-04-18T12:33:05.265Z,22.2021
2023-04-18T12:34:13.433Z,23.3000
2023-04-18T12:35:21.250Z,23.0978
2023-04-18T12:36:29.423Z,23.0364
2023-04-18T12:37:37.526Z,23.6643
2023-04-18T12:38:45.481Z,23.5674
2023-04-18T12:39:53.601Z,24.3462
2023-04-18T12:41:01.617Z,23.0543
2023-04-18T12:42:09.697Z,22.2576
2023-04-18T12:43:17.659Z,23.0707
2023-04-18T12:44:25.758Z,21.9064
2023-04-18T12:45:33.735Z,20.7595
2023-04-18T12:46:41.869Z,20.5474
2023-04-18T12:47:50.016Z,20.0055
2023-04-18T12:48:57.973Z,20.1328
2023-04-18T12:50:06.103Z,20.1261
2023-04-18T12:51:14.093Z,20.1297
2023-04-18T12:52:22.071Z,20.5104
2023-04-18T12:53:30.277Z,20.1387
2023-04-18T12:54:38.286Z,19.5350
2023-04-18T12:55:46.321Z,19.3151
2023-04-18T12:56:54.409Z,20.2138
2023-04-18T12:58:02.572Z,21.5900
2023-04-18T12:59:10.565Z,22.4653
2023-04-18T13:00:18.504Z,21.9215
2023-04-18T13:01:26.766Z,22.9513
2023-04-18T13:02:34.845Z,23.9084
2023-04-18T13:03:42.770Z,23.5193
2023-04-18T13:04:50.953Z,22.3562
2023-04-18T13:05:58.794Z,21.8023
2023-04-18T13:07:06.920Z,21.4248
2023-04-18T13:08:17.677Z,21.9181
2023-04-18T13:09:27.918Z,22.4242
2023-04-18T13:10:36.163Z,21.8711
2023-04-18T13:11:43.958Z,22.9397
2023-04-18T13:12:52.040Z,23.2654
2023-04-18T13:14:00.168Z,22.6228
2023-04-18T13:15:08.176Z,21.7721
2023-04-18T13:16:16.294Z,21.1368
2023-04-18T13:17:24.289Z,20.2136
2023-04-18T13:18:32.294Z,20.9937
2023-04-18T13:19:40.463Z,21.5274
2023-04-18T13:20:48.544Z,22.4279
2023-04-18T13:21:56.688Z,22.9551
2023-04-18T13:23:04.694Z,23.6765
2023-04-18T13:24:12.621Z,24.5579
2023-04-18T13:25:20.726Z,25.0538
2023-04-18T13:26:28.836Z,24.3191
2023-04-18T13:27:37.358Z,24.0248
2023-04-18T13:28:44.891Z,24.3843
2023-04-18T13:29:52.979Z,24.1857
2023-04-18T13:31:01.200Z,24.8699
2023-04-18T13:32:09.301Z,24.4863
2023-04-18T13:33:17.251Z,22.9564
2023-04-18T13:34:25.399Z,24.4488
2023-04-18T13:35:33.325Z,24.7948
2023-04-18T13:36:41.402Z,24.5275
2023-04-18T13:37:49.552Z,24.5359
2023-04-18T13:38:57.523Z,25.6588
2023-04-18T13:40:05.589Z,25.1123
2023-04-18T13:41:13.911Z,25.0752
2023-04-18T13:42:21.701Z,25.3891
2023-04-18T13:43:29.789Z,25.2245
2023-04-18T13:44:37.765Z,25.8680
2023-04-18T13:45:46.067Z,26.5055
2023-04-18T13:46:53.867Z,26.7357
2023-04-18T13:48:02.050Z,27.0455
2023-04-18T13:49:10.125Z,26.9846
2023-04-18T13:50:18.147Z,26.9905
2023-04-18T13:51:26.205Z,27.0876
2023-04-18T13:52:34.233Z,26.8366
2023-04-18T13:53:42.291Z,25.3393
2023-04-18T13:54:50.402Z,25.8736